Time;durP1;ratioP1;P1;durP2;ratioP2;P2;SDS_P1;SDS_P2;PMS_P1;PMS_P2;Temp;Humidity;BMP_temperature;BMP_pressure;BME280_temperature;BME280_humidity;BME280_pressure;Samples;Min_cycle;Max_cycle;Signal;HPM_P1;HPM_P2
2022/06/17 00:01:05;;;;;;;9.27;3.45;;;;;;;;;;4915972;28;20039;-71
2022/06/17 00:03:33;;;;;;;13.60;3.33;;;;;;;;;;4937727;28;20038;-71
2022/06/17 00:06:01;;;;;;;9.80;2.97;;;;;;;;;;4933220;28;20059;-71
2022/06/17 00:08:31;;;;;;;9.60;3.00;;;;;;;;;;4937346;28;20031;-70
2022/06/17 00:10:58;;;;;;;10.93;2.88;;;;;;;;;;4941512;28;20042;-70
2022/06/17 00:13:26;;;;;;;13.05;2.70;;;;;;;;;;4936812;28;20130;-70
2022/06/17 00:15:54;;;;;;;12.50;2.60;;;;;;;;;;4937826;28;20644;-70
2022/06/17 00:18:23;;;;;;;11.00;2.67;;;;;;;;;;4935734;28;20042;-71
2022/06/17 00:20:51;;;;;;;12.07;2.97;;;;;;;;;;4936501;28;20038;-70
2022/06/17 00:23:20;;;;;;;10.27;2.55;;;;;;;;;;4940233;28;20700;-71
2022/06/17 00:25:48;;;;;;;13.93;2.72;;;;;;;;;;4937251;28;20114;-71
2022/06/17 00:28:17;;;;;;;9.82;2.50;;;;;;;;;;4938667;28;20496;-71
2022/06/17 00:30:46;;;;;;;8.63;2.25;;;;;;;;;;4933297;28;20497;-71
2022/06/17 00:33:15;;;;;;;8.38;2.17;;;;;;;;;;4937278;28;20030;-71
2022/06/17 00:35:49;;;;;;;9.73;2.33;;;;;;;;;;4938801;28;20043;-70
2022/06/17 00:38:18;;;;;;;10.38;2.47;;;;;;;;;;4939213;28;20457;-71
2022/06/17 00:40:46;;;;;;;9.45;2.20;;;;;;;;;;4934853;28;20366;-70
2022/06/17 00:43:23;;;;;;;9.68;2.10;;;;;;;;;;4937356;28;20036;-70
2022/06/17 00:46:20;;;;;;;8.63;2.22;;;;;;;;;;4934968;28;20090;-70
2022/06/17 00:48:55;;;;;;;11.23;2.42;;;;;;;;;;4916030;28;20046;-70
2022/06/17 00:51:24;;;;;;;8.93;2.13;;;;;;;;;;4937067;28;20152;-70
2022/06/17 00:53:58;;;;;;;8.80;2.25;;;;;;;;;;4934949;28;20088;-70
2022/06/17 00:56:26;;;;;;;11.20;2.10;;;;;;;;;;4937061;28;20126;-70
2022/06/17 00:58:55;;;;;;;8.50;2.53;;;;;;;;;;4933239;28;20723;-70
2022/06/17 01:01:25;;;;;;;12.18;2.65;;;;;;;;;;4939093;28;20039;-71
2022/06/17 01:03:53;;;;;;;10.48;2.53;;;;;;;;;;4935703;28;20500;-70
2022/06/17 01:06:21;;;;;;;11.25;2.45;;;;;;;;;;4938389;28;20042;-71
2022/06/17 01:11:33;;;;;;;9.70;2.50;;;;;;;;;;4940583;28;20066;-71
2022/06/17 01:14:00;;;;;;;8.50;2.20;;;;;;;;;;4936999;28;20035;-71
2022/06/17 01:16:29;;;;;;;8.43;2.42;;;;;;;;;;4937751;28;20027;-72
2022/06/17 01:18:58;;;;;;;8.45;2.22;;;;;;;;;;4935784;28;20066;-70
2022/06/17 01:21:37;;;;;;;12.00;2.70;;;;;;;;;;4945326;28;20353;-70
2022/06/17 01:24:03;;;;;;;9.32;2.10;;;;;;;;;;4940224;28;20696;-72
2022/06/17 01:26:29;;;;;;;11.90;2.42;;;;;;;;;;4940164;28;20023;-71
2022/06/17 01:28:55;;;;;;;9.50;2.35;;;;;;;;;;4938738;28;20035;-70
2022/06/17 01:31:23;;;;;;;8.35;2.50;;;;;;;;;;4936885;28;20125;-70
2022/06/17 01:33:49;;;;;;;8.77;2.53;;;;;;;;;;4937074;28;20035;-74
2022/06/17 01:36:24;;;;;;;10.60;2.60;;;;;;;;;;4946834;28;20034;-71
2022/06/17 01:38:52;;;;;;;11.18;2.35;;;;;;;;;;4935795;28;20035;-71
2022/06/17 01:41:20;;;;;;;8.82;1.80;;;;;;;;;;4946991;28;20058;-70
2022/06/17 01:44:01;;;;;;;11.38;2.38;;;;;;;;;;4957203;28;20057;-70
2022/06/17 01:46:29;;;;;;;9.43;2.17;;;;;;;;;;4961180;28;20435;-70
2022/06/17 01:49:03;;;;;;;8.45;2.22;;;;;;;;;;4948610;28;20037;-70
2022/06/17 01:51:32;;;;;;;9.90;2.65;;;;;;;;;;4960505;28;20038;-70
2022/06/17 01:54:00;;;;;;;8.23;2.42;;;;;;;;;;4958349;28;20766;-71
2022/06/17 01:56:30;;;;;;;10.15;1.95;;;;;;;;;;4958187;28;20339;-73
2022/06/17 01:59:03;;;;;;;13.05;2.38;;;;;;;;;;4923785;28;20054;-72
2022/06/17 02:01:37;;;;;;;9.07;2.20;;;;;;;;;;4943699;28;20141;-71
2022/06/17 02:04:16;;;;;;;11.38;2.10;;;;;;;;;;4940120;28;20434;-70
2022/06/17 02:06:52;;;;;;;12.80;2.20;;;;;;;;;;4956575;28;20034;-70
2022/06/17 02:09:20;;;;;;;9.27;2.30;;;;;;;;;;4958805;28;20484;-71
2022/06/17 02:11:48;;;;;;;13.68;2.33;;;;;;;;;;4957022;28;20034;-70
2022/06/17 02:14:16;;;;;;;7.32;1.98;;;;;;;;;;4958519;28;20097;-70
2022/06/17 02:16:50;;;;;;;9.90;2.40;;;;;;;;;;4952526;28;20034;-70
2022/06/17 02:19:20;;;;;;;8.82;2.50;;;;;;;;;;4954667;28;20045;-70
2022/06/17 02:21:53;;;;;;;9.93;2.50;;;;;;;;;;4938487;28;20035;-71
2022/06/17 02:24:22;;;;;;;10.35;2.15;;;;;;;;;;4940757;28;20034;-70
2022/06/17 02:26:50;;;;;;;6.75;2.00;;;;;;;;;;4954109;28;20128;-71
2022/06/17 02:29:18;;;;;;;7.95;1.95;;;;;;;;;;4955714;28;20042;-70
2022/06/17 02:31:48;;;;;;;7.38;1.67;;;;;;;;;;4937839;28;20132;-71
2022/06/17 02:34:17;;;;;;;8.82;2.13;;;;;;;;;;4955665;28;20431;-71
2022/06/17 02:36:48;;;;;;;8.55;2.05;;;;;;;;;;4940608;28;20050;-71
2022/06/17 02:39:16;;;;;;;7.50;2.05;;;;;;;;;;4953933;28;20390;-71
2022/06/17 02:41:46;;;;;;;7.50;1.73;;;;;;;;;;4938347;28;20563;-70
2022/06/17 02:44:29;;;;;;;10.88;2.10;;;;;;;;;;4926583;28;20137;-71
2022/06/17 02:46:58;;;;;;;9.30;2.00;;;;;;;;;;4955926;28;20033;-71
2022/06/17 02:49:27;;;;;;;7.80;1.80;;;;;;;;;;4956516;28;20174;-71
2022/06/17 02:51:54;;;;;;;9.32;2.20;;;;;;;;;;4924278;28;20060;-70
2022/06/17 02:54:27;;;;;;;9.27;1.92;;;;;;;;;;4946251;28;20046;-71
2022/06/17 02:56:56;;;;;;;6.13;2.00;;;;;;;;;;4951412;28;20042;-70
2022/06/17 02:59:48;;;;;;;6.68;1.85;;;;;;;;;;4958474;28;20479;-71
2022/06/17 03:02:21;;;;;;;9.40;1.67;;;;;;;;;;4947508;28;20053;-71
2022/06/17 03:04:49;;;;;;;9.85;2.35;;;;;;;;;;4954883;28;20862;-71
2022/06/17 03:07:18;;;;;;;10.52;2.20;;;;;;;;;;4955603;28;20408;-71
2022/06/17 03:09:44;;;;;;;9.15;2.22;;;;;;;;;;4938560;28;20040;-71
2022/06/17 03:12:15;;;;;;;7.60;2.00;;;;;;;;;;4955928;28;20026;-71
2022/06/17 03:14:50;;;;;;;8.57;2.10;;;;;;;;;;4938390;28;20569;-69
2022/06/17 03:17:19;;;;;;;10.00;2.27;;;;;;;;;;4956092;28;20026;-70
2022/06/17 03:19:46;;;;;;;8.98;1.80;;;;;;;;;;4950885;28;20061;-70
2022/06/17 03:22:13;;;;;;;8.45;1.92;;;;;;;;;;4958062;28;20026;-70
2022/06/17 03:24:43;;;;;;;6.63;2.17;;;;;;;;;;4960139;28;20466;-70
2022/06/17 03:27:24;;;;;;;8.15;2.10;;;;;;;;;;4956439;28;20023;-70
2022/06/17 03:29:52;;;;;;;7.80;2.30;;;;;;;;;;4951410;28;20034;-70
2022/06/17 03:32:22;;;;;;;7.20;1.98;;;;;;;;;;4956973;28;20244;-70
2022/06/17 03:34:51;;;;;;;9.55;2.03;;;;;;;;;;4950924;28;20030;-70
2022/06/17 03:37:28;;;;;;;6.18;1.63;;;;;;;;;;4958332;28;20314;-69
2022/06/17 03:40:04;;;;;;;8.60;2.03;;;;;;;;;;4950526;28;20050;-70
2022/06/17 03:42:39;;;;;;;8.80;2.10;;;;;;;;;;4957069;28;20034;-71
2022/06/17 03:45:12;;;;;;;8.15;2.10;;;;;;;;;;4954290;28;20031;-70
2022/06/17 03:47:53;;;;;;;7.80;2.15;;;;;;;;;;4951878;28;20107;-71
2022/06/17 03:50:30;;;;;;;8.15;2.28;;;;;;;;;;4953474;28;20030;-71
2022/06/17 03:53:04;;;;;;;6.82;2.10;;;;;;;;;;4950357;28;20489;-71
2022/06/17 03:55:32;;;;;;;8.77;2.30;;;;;;;;;;4957785;28;20675;-71
2022/06/17 03:58:06;;;;;;;12.32;2.25;;;;;;;;;;4935451;28;20038;-71
2022/06/17 04:00:46;;;;;;;9.75;2.20;;;;;;;;;;4957549;28;20031;-71
2022/06/17 04:03:19;;;;;;;10.20;2.38;;;;;;;;;;4954607;28;20166;-71
2022/06/17 04:05:49;;;;;;;7.95;2.00;;;;;;;;;;4922319;28;20027;-71
2022/06/17 04:08:17;;;;;;;10.93;2.28;;;;;;;;;;4924344;28;20316;-71
2022/06/17 04:10:44;;;;;;;9.27;2.17;;;;;;;;;;4951897;28;20448;-71
2022/06/17 04:13:22;;;;;;;9.25;2.40;;;;;;;;;;4940230;28;20846;-71
2022/06/17 04:16:09;;;;;;;8.75;2.10;;;;;;;;;;4932328;28;20046;-69
2022/06/17 04:18:37;;;;;;;8.23;2.40;;;;;;;;;;4954571;28;20041;-70
2022/06/17 04:21:06;;;;;;;10.20;2.40;;;;;;;;;;4951676;28;20362;-70
2022/06/17 04:23:37;;;;;;;8.43;2.08;;;;;;;;;;4939824;28;20445;-70
2022/06/17 04:26:22;;;;;;;8.82;2.50;;;;;;;;;;4922965;28;20496;-70
2022/06/17 04:28:58;;;;;;;10.95;2.30;;;;;;;;;;4953355;28;20487;-70
2022/06/17 04:31:29;;;;;;;8.80;2.28;;;;;;;;;;4942260;28;20030;-70
2022/06/17 04:34:15;;;;;;;10.82;2.40;;;;;;;;;;4919174;28;20043;-70
2022/06/17 04:36:49;;;;;;;15.02;2.70;;;;;;;;;;4955682;28;20046;-71
2022/06/17 04:39:35;;;;;;;10.30;2.22;;;;;;;;;;4953905;28;20063;-71
2022/06/17 04:42:08;;;;;;;12.65;2.22;;;;;;;;;;4952221;28;20757;-71
2022/06/17 04:44:35;;;;;;;9.32;2.42;;;;;;;;;;4925448;28;20493;-71
2022/06/17 04:47:24;;;;;;;8.32;1.98;;;;;;;;;;4954838;28;20041;-71
2022/06/17 04:50:03;;;;;;;11.73;2.33;;;;;;;;;;4950106;28;20022;-69
2022/06/17 04:52:46;;;;;;;11.40;2.50;;;;;;;;;;4961997;28;20478;-71
2022/06/17 04:55:32;;;;;;;10.38;2.30;;;;;;;;;;4958978;28;20112;-71
2022/06/17 04:57:58;;;;;;;9.93;2.17;;;;;;;;;;4955088;28;20547;-71
2022/06/17 05:00:27;;;;;;;10.25;2.17;;;;;;;;;;4957624;28;20037;-70
2022/06/17 05:02:53;;;;;;;11.10;2.42;;;;;;;;;;4953065;28;20157;-70
2022/06/17 05:05:27;;;;;;;9.48;2.35;;;;;;;;;;4939424;28;20842;-70
2022/06/17 05:07:54;;;;;;;9.50;2.40;;;;;;;;;;4956718;28;20051;-70
2022/06/17 05:10:22;;;;;;;10.85;2.63;;;;;;;;;;4940687;28;20266;-71
2022/06/17 05:12:52;;;;;;;10.63;2.28;;;;;;;;;;4955295;28;20034;-70
2022/06/17 05:15:21;;;;;;;11.50;2.17;;;;;;;;;;4958237;28;20054;-69
2022/06/17 05:17:48;;;;;;;6.88;2.13;;;;;;;;;;4959745;28;20034;-72
2022/06/17 05:20:20;;;;;;;10.52;2.50;;;;;;;;;;4984303;28;20096;-73
2022/06/17 05:22:55;;;;;;;10.65;2.75;;;;;;;;;;4960335;28;20519;-73
2022/06/17 05:25:24;;;;;;;11.10;2.42;;;;;;;;;;4965642;28;20034;-73
2022/06/17 05:27:54;;;;;;;8.80;2.13;;;;;;;;;;4928028;28;20065;-73
2022/06/17 05:30:21;;;;;;;9.07;2.28;;;;;;;;;;4959632;28;20054;-73
2022/06/17 05:32:55;;;;;;;9.55;2.40;;;;;;;;;;4954227;28;20124;-73
2022/06/17 05:35:26;;;;;;;14.63;2.60;;;;;;;;;;4955883;28;20480;-72
2022/06/17 05:37:53;;;;;;;8.95;2.05;;;;;;;;;;4951014;28;20268;-74
2022/06/17 05:40:26;;;;;;;9.52;2.10;;;;;;;;;;4953010;28;20046;-73
2022/06/17 05:42:53;;;;;;;11.18;2.45;;;;;;;;;;4958156;28;20154;-71
2022/06/17 05:45:21;;;;;;;11.52;2.63;;;;;;;;;;4937636;28;20034;-70
2022/06/17 05:47:47;;;;;;;9.05;2.58;;;;;;;;;;4950711;28;20292;-70
2022/06/17 05:50:14;;;;;;;7.72;2.38;;;;;;;;;;4940700;28;20034;-73
2022/06/17 05:53:06;;;;;;;14.15;2.97;;;;;;;;;;4950155;28;20038;-70
2022/06/17 05:55:35;;;;;;;11.38;2.50;;;;;;;;;;4936853;28;20444;-70
2022/06/17 05:58:08;;;;;;;14.13;2.60;;;;;;;;;;4953336;28;20058;-70
2022/06/17 06:00:37;;;;;;;14.93;2.53;;;;;;;;;;4958589;28;20046;-70
2022/06/17 06:03:07;;;;;;;26.33;3.55;;;;;;;;;;4957072;28;20026;-70
2022/06/17 06:05:35;;;;;;;11.65;2.00;;;;;;;;;;4957412;28;20043;-70
2022/06/17 06:08:07;;;;;;;14.38;2.83;;;;;;;;;;4960062;28;20022;-70
2022/06/17 06:10:38;;;;;;;29.58;4.30;;;;;;;;;;4959360;28;20026;-72
2022/06/17 06:13:05;;;;;;;13.73;2.47;;;;;;;;;;4941704;28;20544;-69
2022/06/17 06:15:39;;;;;;;16.95;3.47;;;;;;;;;;4957871;28;20026;-70
2022/06/17 06:18:10;;;;;;;14.65;2.80;;;;;;;;;;4945315;28;20034;-72
2022/06/17 06:20:38;;;;;;;29.25;4.47;;;;;;;;;;4942332;28;20480;-71
2022/06/17 06:23:07;;;;;;;22.20;3.15;;;;;;;;;;4941213;28;20120;-72
2022/06/17 06:25:36;;;;;;;18.73;3.38;;;;;;;;;;4956588;28;20038;-70
2022/06/17 06:28:12;;;;;;;20.75;3.75;;;;;;;;;;4951831;28;20133;-70
2022/06/17 06:30:39;;;;;;;20.30;3.88;;;;;;;;;;4956207;28;20553;-70
2022/06/17 06:33:09;;;;;;;15.35;2.97;;;;;;;;;;4941675;28;20359;-70
2022/06/17 06:35:38;;;;;;;13.80;3.35;;;;;;;;;;4943211;28;20065;-70
2022/06/17 06:38:07;;;;;;;18.35;3.00;;;;;;;;;;4938601;28;20050;-70
2022/06/17 06:40:36;;;;;;;20.90;3.28;;;;;;;;;;4916824;28;20057;-70
2022/06/17 06:43:05;;;;;;;17.13;3.72;;;;;;;;;;4934516;28;20420;-70
2022/06/17 06:45:37;;;;;;;14.32;3.05;;;;;;;;;;4940377;28;20144;-70
2022/06/17 06:48:07;;;;;;;13.77;2.67;;;;;;;;;;4936750;28;20544;-70
2022/06/17 06:50:36;;;;;;;16.92;4.32;;;;;;;;;;4936103;28;20034;-70
2022/06/17 06:53:06;;;;;;;13.80;3.17;;;;;;;;;;4935963;28;20383;-70
2022/06/17 06:55:34;;;;;;;18.33;3.50;;;;;;;;;;4936494;28;20051;-70
2022/06/17 06:58:02;;;;;;;13.20;2.80;;;;;;;;;;4932591;28;20742;-70
2022/06/17 07:00:36;;;;;;;16.02;3.10;;;;;;;;;;4935916;28;20037;-70
2022/06/17 07:03:03;;;;;;;15.13;2.78;;;;;;;;;;4934651;28;20064;-70
2022/06/17 07:05:30;;;;;;;11.82;2.50;;;;;;;;;;4942008;28;20054;-70
2022/06/17 07:07:57;;;;;;;14.57;2.97;;;;;;;;;;4931700;28;20039;-70
2022/06/17 07:10:30;;;;;;;9.02;2.83;;;;;;;;;;4943470;28;20046;-70
2022/06/17 07:12:56;;;;;;;13.32;2.42;;;;;;;;;;4904333;28;20145;-70
2022/06/17 07:15:23;;;;;;;12.93;2.63;;;;;;;;;;4941400;28;20038;-71
2022/06/17 07:17:57;;;;;;;7.50;1.95;;;;;;;;;;4934713;28;20035;-70
2022/06/17 07:20:25;;;;;;;12.55;2.20;;;;;;;;;;4923660;28;20041;-70
2022/06/17 07:22:51;;;;;;;10.98;1.98;;;;;;;;;;4896448;28;20443;-70
2022/06/17 07:25:18;;;;;;;10.32;2.30;;;;;;;;;;4940737;28;20140;-72
2022/06/17 07:27:45;;;;;;;11.77;2.30;;;;;;;;;;4938159;28;20422;-72
2022/06/17 07:30:21;;;;;;;8.57;1.95;;;;;;;;;;4941245;28;20027;-71
2022/06/17 07:32:49;;;;;;;8.50;2.10;;;;;;;;;;4937274;28;20488;-71
2022/06/17 07:35:17;;;;;;;9.13;1.80;;;;;;;;;;4940984;28;20035;-71
2022/06/17 07:40:28;;;;;;;8.48;1.60;;;;;;;;;;4947726;28;20061;-71
2022/06/17 07:42:55;;;;;;;6.53;1.50;;;;;;;;;;4957556;28;20390;-70
2022/06/17 07:45:24;;;;;;;9.98;1.77;;;;;;;;;;4958200;28;20030;-71
2022/06/17 07:47:51;;;;;;;5.75;1.55;;;;;;;;;;4958583;28;20038;-71
2022/06/17 07:50:19;;;;;;;14.05;2.13;;;;;;;;;;4948280;28;20152;-70
2022/06/17 07:52:46;;;;;;;12.95;1.70;;;;;;;;;;4963260;28;20045;-70
2022/06/17 07:55:15;;;;;;;7.20;1.55;;;;;;;;;;4960037;28;20719;-71
2022/06/17 07:57:54;;;;;;;6.50;1.25;;;;;;;;;;4958231;28;20396;-73
2022/06/17 08:00:45;;;;;;;7.00;1.58;;;;;;;;;;4940030;28;20069;-76
2022/06/17 08:03:15;;;;;;;6.57;1.70;;;;;;;;;;4942341;28;20034;-76
2022/06/17 08:05:44;;;;;;;10.07;1.75;;;;;;;;;;4923170;28;20410;-75
2022/06/17 08:08:21;;;;;;;8.25;1.85;;;;;;;;;;4966761;28;20038;-76
2022/06/17 08:10:58;;;;;;;11.02;1.67;;;;;;;;;;4947419;28;20049;-72
2022/06/17 08:13:27;;;;;;;11.25;1.95;;;;;;;;;;4944749;28;20145;-70
2022/06/17 08:16:06;;;;;;;9.38;1.67;;;;;;;;;;4956081;28;20030;-71
2022/06/17 08:18:34;;;;;;;10.23;1.80;;;;;;;;;;4947758;28;20038;-70
2022/06/17 08:21:03;;;;;;;11.48;2.08;;;;;;;;;;4933018;28;20711;-71
2022/06/17 08:23:31;;;;;;;7.53;1.90;;;;;;;;;;4957706;28;20421;-71
2022/06/17 08:26:00;;;;;;;9.90;1.67;;;;;;;;;;4957437;28;22612;-73
2022/06/17 08:28:29;;;;;;;10.23;1.88;;;;;;;;;;4962305;28;20536;-73
2022/06/17 08:30:59;;;;;;;8.07;1.80;;;;;;;;;;4960046;28;20156;-70
2022/06/17 08:33:36;;;;;;;7.47;1.90;;;;;;;;;;4966454;28;20098;-71
2022/06/17 08:36:22;;;;;;;12.05;1.75;;;;;;;;;;4944955;28;20033;-70
2022/06/17 08:38:51;;;;;;;9.77;1.98;;;;;;;;;;4955082;28;20788;-71
2022/06/17 08:41:25;;;;;;;9.45;2.17;;;;;;;;;;4931197;28;20090;-70
2022/06/17 08:44:16;;;;;;;8.30;1.70;;;;;;;;;;4937812;28;20046;-71
2022/06/17 08:47:01;;;;;;;7.45;1.88;;;;;;;;;;4949967;28;20035;-70
2022/06/17 08:49:46;;;;;;;10.07;1.88;;;;;;;;;;4944335;28;20031;-71
2022/06/17 08:52:32;;;;;;;9.05;1.95;;;;;;;;;;4937943;28;20779;-72
2022/06/17 08:54:58;;;;;;;9.57;1.95;;;;;;;;;;4938121;28;20073;-71
2022/06/17 08:57:25;;;;;;;10.40;2.20;;;;;;;;;;4923746;28;20380;-70
2022/06/17 09:00:03;;;;;;;8.88;1.73;;;;;;;;;;4934307;28;20032;-70
2022/06/17 09:02:48;;;;;;;13.48;2.17;;;;;;;;;;4939404;28;20089;-71
2022/06/17 09:05:33;;;;;;;9.05;1.85;;;;;;;;;;4944001;28;20536;-71
2022/06/17 09:08:05;;;;;;;7.55;1.85;;;;;;;;;;4936833;28;20027;-72
2022/06/17 09:10:50;;;;;;;11.60;2.33;;;;;;;;;;4941869;28;20039;-71
2022/06/17 09:13:20;;;;;;;12.50;2.20;;;;;;;;;;4919800;28;20373;-71
2022/06/17 09:16:03;;;;;;;14.18;2.42;;;;;;;;;;4923186;28;20042;-71
2022/06/17 09:18:32;;;;;;;9.95;2.20;;;;;;;;;;4943207;28;20196;-71
2022/06/17 09:21:07;;;;;;;10.55;2.20;;;;;;;;;;4917918;28;20043;-71
2022/06/17 09:23:36;;;;;;;9.20;2.20;;;;;;;;;;4939101;28;20051;-70
2022/06/17 09:26:05;;;;;;;10.13;2.25;;;;;;;;;;4937494;28;20370;-70
2022/06/17 09:28:54;;;;;;;10.82;2.00;;;;;;;;;;4938049;28;20089;-70
2022/06/17 09:31:32;;;;;;;10.75;2.00;;;;;;;;;;4848105;29;20066;-70
2022/06/17 09:34:05;;;;;;;11.35;2.10;;;;;;;;;;4843472;29;20662;-71
2022/06/17 09:36:37;;;;;;;9.65;1.92;;;;;;;;;;4848639;29;20055;-71
2022/06/17 09:39:11;;;;;;;10.50;2.30;;;;;;;;;;4859434;29;20036;-73
2022/06/17 09:41:53;;;;;;;11.80;2.30;;;;;;;;;;4879498;29;20048;-71
2022/06/17 09:44:25;;;;;;;9.93;2.00;;;;;;;;;;4871126;29;20131;-70
2022/06/17 09:46:57;;;;;;;9.55;2.03;;;;;;;;;;4881899;29;20787;-70
2022/06/17 09:49:35;;;;;;;10.93;2.53;;;;;;;;;;4895851;29;21251;-70
2022/06/17 09:52:07;;;;;;;10.25;2.13;;;;;;;;;;4872260;29;20119;-70
2022/06/17 09:54:52;;;;;;;9.55;2.20;;;;;;;;;;4888747;29;20039;-70
2022/06/17 09:57:29;;;;;;;10.90;2.17;;;;;;;;;;4891220;29;20225;-71
2022/06/17 10:00:11;;;;;;;9.05;2.13;;;;;;;;;;4885098;29;20456;-70
2022/06/17 10:02:43;;;;;;;14.65;2.13;;;;;;;;;;4870925;29;20501;-73
2022/06/17 10:05:34;;;;;;;10.52;1.98;;;;;;;;;;4871339;29;20488;-71
2022/06/17 10:08:04;;;;;;;10.30;2.00;;;;;;;;;;4857742;29;21111;-71
2022/06/17 10:10:54;;;;;;;10.55;1.95;;;;;;;;;;4902287;29;20509;-71
2022/06/17 10:13:39;;;;;;;10.07;2.03;;;;;;;;;;4904778;29;20054;-71
2022/06/17 10:19:08;;;;;;;12.02;2.08;;;;;;;;;;4893590;29;20050;-71
2022/06/17 10:21:53;;;;;;;10.48;2.15;;;;;;;;;;4898158;29;20039;-71
2022/06/17 10:24:33;;;;;;;11.45;2.10;;;;;;;;;;4900735;29;20039;-72
2022/06/17 10:27:18;;;;;;;11.80;2.30;;;;;;;;;;4897010;29;20107;-71
2022/06/17 10:29:52;;;;;;;10.52;1.95;;;;;;;;;;4897870;29;20032;-71
2022/06/17 10:32:21;;;;;;;9.55;1.88;;;;;;;;;;4907231;29;20138;-70
2022/06/17 10:34:58;;;;;;;11.88;2.17;;;;;;;;;;4899769;29;20066;-70
2022/06/17 10:37:28;;;;;;;10.98;2.13;;;;;;;;;;4885744;29;20853;-71
2022/06/17 10:39:58;;;;;;;12.60;1.98;;;;;;;;;;4899038;28;20542;-71
2022/06/17 10:42:26;;;;;;;9.85;1.98;;;;;;;;;;4905075;28;20563;-71
2022/06/17 10:45:01;;;;;;;28.02;4.57;;;;;;;;;;4930740;28;20050;-72
2022/06/17 10:47:47;;;;;;;11.73;1.98;;;;;;;;;;4943091;28;20113;-71
2022/06/17 10:50:41;;;;;;;12.85;2.10;;;;;;;;;;4959933;28;20039;-72
2022/06/17 10:53:14;;;;;;;10.20;1.65;;;;;;;;;;4944228;28;20145;-72
2022/06/17 10:55:42;;;;;;;10.68;2.00;;;;;;;;;;4952423;28;20062;-71
2022/06/17 10:58:11;;;;;;;10.90;2.00;;;;;;;;;;4955994;28;20354;-71
2022/06/17 11:00:42;;;;;;;15.52;2.10;;;;;;;;;;4939523;28;20035;-71
2022/06/17 11:03:22;;;;;;;9.07;1.90;;;;;;;;;;4948332;28;20493;-71
2022/06/17 11:05:59;;;;;;;13.23;1.70;;;;;;;;;;4967303;28;20030;-70
2022/06/17 11:08:29;;;;;;;8.48;1.90;;;;;;;;;;4945581;28;20026;-72
2022/06/17 11:12:02;;;;;;;13.05;2.08;;;;;;;;;;4919487;28;20440;-73
2022/06/17 11:13:45;;;;;;;8.50;1.75;;;;;;;;;;4961383;28;20035;-71
2022/06/17 11:16:16;;;;;;;10.55;2.30;;;;;;;;;;4966771;28;20125;-73
2022/06/17 11:18:45;;;;;;;7.75;1.70;;;;;;;;;;4961339;28;20097;-73
2022/06/17 11:21:20;;;;;;;10.02;1.73;;;;;;;;;;4963879;28;20026;-73
2022/06/17 11:23:48;;;;;;;9.65;1.95;;;;;;;;;;4960679;28;20144;-73
2022/06/17 11:26:16;;;;;;;11.05;1.90;;;;;;;;;;4963634;28;20065;-73
2022/06/17 11:28:48;;;;;;;8.55;1.67;;;;;;;;;;4943942;28;20030;-72
2022/06/17 11:31:21;;;;;;;10.80;2.00;;;;;;;;;;4964473;28;20038;-72
2022/06/17 11:33:56;;;;;;;12.02;1.90;;;;;;;;;;4951580;28;20031;-72
2022/06/17 11:36:28;;;;;;;9.27;1.70;;;;;;;;;;4961387;28;20093;-73
2022/06/17 11:38:55;;;;;;;9.10;1.52;;;;;;;;;;4959774;28;20404;-72
2022/06/17 11:41:24;;;;;;;11.43;2.13;;;;;;;;;;4964233;28;20470;-72
2022/06/17 11:43:54;;;;;;;9.05;1.80;;;;;;;;;;4960771;28;20631;-72
2022/06/17 11:46:29;;;;;;;9.27;1.80;;;;;;;;;;4918392;28;20563;-72
2022/06/17 11:49:02;;;;;;;9.73;1.50;;;;;;;;;;4908084;28;20031;-72
2022/06/17 11:51:31;;;;;;;8.60;1.55;;;;;;;;;;4909110;28;20530;-70
2022/06/17 11:54:10;;;;;;;7.82;1.92;;;;;;;;;;4896692;28;20031;-72
2022/06/17 11:56:43;;;;;;;11.25;1.90;;;;;;;;;;4915166;28;20065;-72
2022/06/17 11:59:16;;;;;;;13.45;1.73;;;;;;;;;;4888537;28;20117;-71
2022/06/17 12:02:06;;;;;;;8.65;1.92;;;;;;;;;;4900649;28;20405;-71
2022/06/17 12:04:47;;;;;;;10.20;2.13;;;;;;;;;;4905988;28;20903;-71
2022/06/17 12:07:23;;;;;;;9.80;1.98;;;;;;;;;;4907359;28;20433;-72
2022/06/17 12:09:56;;;;;;;10.43;1.60;;;;;;;;;;4898787;28;20419;-72
2022/06/17 12:12:25;;;;;;;9.88;1.92;;;;;;;;;;4904679;28;20034;-71
2022/06/17 12:15:04;;;;;;;9.68;1.98;;;;;;;;;;4903161;28;20027;-72
2022/06/17 12:17:33;;;;;;;9.93;1.60;;;;;;;;;;4909809;28;20026;-73
2022/06/17 12:20:03;;;;;;;13.38;2.00;;;;;;;;;;4905026;28;20034;-71
2022/06/17 12:22:52;;;;;;;7.78;1.48;;;;;;;;;;4918705;28;20394;-71
2022/06/17 12:25:41;;;;;;;8.38;1.60;;;;;;;;;;4958198;28;20078;-72
2022/06/17 12:28:19;;;;;;;8.20;1.60;;;;;;;;;;4968685;28;20027;-73
2022/06/17 12:31:23;;;;;;;9.15;1.65;;;;;;;;;;4930361;28;20502;-71
2022/06/17 12:34:08;;;;;;;9.30;2.08;;;;;;;;;;4966843;28;20037;-72
2022/06/17 12:36:52;;;;;;;10.48;1.70;;;;;;;;;;4960959;28;20056;-72
2022/06/17 12:39:37;;;;;;;12.18;2.05;;;;;;;;;;4964156;28;20093;-72
2022/06/17 12:42:10;;;;;;;11.15;1.85;;;;;;;;;;4944343;28;20359;-69
2022/06/17 12:44:55;;;;;;;9.10;1.77;;;;;;;;;;4947076;28;20046;-73
2022/06/17 12:47:21;;;;;;;;;;;;;;;;;;4941379;28;20077;-73
2022/06/17 12:53:15;;;;;;;11.02;1.77;;;;;;;;;;4945196;28;20081;-72
2022/06/17 12:55:47;;;;;;;7.80;1.50;;;;;;;;;;4947019;28;20188;-72
2022/06/17 12:58:25;;;;;;;6.57;1.40;;;;;;;;;;4946991;28;20062;-73
2022/06/17 13:00:52;;;;;;;6.95;1.70;;;;;;;;;;4943848;28;20160;-73
2022/06/17 13:03:29;;;;;;;10.98;1.90;;;;;;;;;;4940889;28;20035;-73
2022/06/17 13:05:58;;;;;;;7.60;1.88;;;;;;;;;;4940074;28;20153;-74
2022/06/17 13:08:36;;;;;;;9.90;1.65;;;;;;;;;;4947422;28;20023;-72
2022/06/17 13:11:05;;;;;;;7.22;1.63;;;;;;;;;;4948453;28;20033;-72
2022/06/17 13:13:44;;;;;;;9.07;1.95;;;;;;;;;;4949350;28;20026;-72
2022/06/17 13:16:13;;;;;;;8.30;1.52;;;;;;;;;;4950655;28;20353;-74
2022/06/17 13:18:58;;;;;;;8.63;1.65;;;;;;;;;;4954840;28;20034;-74
2022/06/17 13:21:24;;;;;;;;;;;;;;;;;;4948407;28;20054;-73
2022/06/17 13:24:03;;;;;;;9.80;1.83;;;;;;;;;;4943919;28;19918;-73
2022/06/17 13:26:50;;;;;;;11.77;1.80;;;;;;;;;;4948505;28;20093;-73
2022/06/17 13:29:34;;;;;;;7.57;1.70;;;;;;;;;;4948101;28;20062;-73
2022/06/17 13:32:15;;;;;;;10.57;1.90;;;;;;;;;;4928684;28;20059;-73
2022/06/17 13:34:45;;;;;;;8.98;1.42;;;;;;;;;;4941670;28;20146;-72
2022/06/17 13:37:18;;;;;;;8.63;1.50;;;;;;;;;;4947883;28;20039;-74
2022/06/17 13:39:53;;;;;;;10.18;1.77;;;;;;;;;;4943941;28;20375;-73
2022/06/17 13:42:20;;;;;;;11.63;1.58;;;;;;;;;;4948471;28;20161;-73
2022/06/17 13:45:05;;;;;;;7.97;1.80;;;;;;;;;;4917540;28;20062;-73
2022/06/17 13:47:32;;;;;;;11.65;1.85;;;;;;;;;;4953369;28;20046;-72
2022/06/17 13:50:03;;;;;;;10.93;1.92;;;;;;;;;;4939636;28;20043;-72
2022/06/17 13:52:44;;;;;;;10.93;1.80;;;;;;;;;;4955792;28;20034;-74
2022/06/17 13:55:30;;;;;;;8.77;1.60;;;;;;;;;;4952612;28;20070;-74
2022/06/17 13:58:15;;;;;;;8.23;1.60;;;;;;;;;;4947381;28;20037;-74
2022/06/17 14:00:48;;;;;;;7.88;1.50;;;;;;;;;;4946037;28;20769;-73
2022/06/17 14:03:18;;;;;;;6.43;1.40;;;;;;;;;;4935242;28;20401;-74
2022/06/17 14:06:06;;;;;;;7.65;1.85;;;;;;;;;;4915779;28;20478;-74
2022/06/17 14:08:53;;;;;;;8.68;1.73;;;;;;;;;;4947854;28;20015;-73
2022/06/17 14:11:44;;;;;;;10.93;1.60;;;;;;;;;;4951878;28;20031;-73
2022/06/17 14:14:46;;;;;;;7.82;1.40;;;;;;;;;;4950748;28;20555;-75
2022/06/17 14:17:27;;;;;;;9.13;1.60;;;;;;;;;;4870799;29;20052;-74
2022/06/17 14:19:57;;;;;;;8.88;1.73;;;;;;;;;;4870539;29;20101;-74
2022/06/17 14:22:38;;;;;;;8.23;1.58;;;;;;;;;;4871466;29;20466;-74
2022/06/17 14:25:11;;;;;;;9.07;1.80;;;;;;;;;;4862023;29;20040;-74
2022/06/17 14:27:44;;;;;;;8.05;1.50;;;;;;;;;;4916366;28;20046;-73
2022/06/17 14:30:22;;;;;;;9.40;2.05;;;;;;;;;;4967246;28;20041;-74
2022/06/17 14:32:57;;;;;;;7.75;1.65;;;;;;;;;;4970900;28;20054;-73
2022/06/17 14:35:29;;;;;;;12.63;2.00;;;;;;;;;;4973250;28;20274;-73
2022/06/17 14:38:16;;;;;;;8.73;1.50;;;;;;;;;;4966312;28;20523;-73
2022/06/17 14:44:01;;;;;;;9.43;1.40;;;;;;;;;;4968226;28;20049;-78
2022/06/17 14:46:54;;;;;;;7.30;1.30;;;;;;;;;;4972390;28;20113;-78
2022/06/17 14:49:49;;;;;;;6.63;1.38;;;;;;;;;;4973610;28;20147;-79
2022/06/17 14:52:35;;;;;;;9.07;1.42;;;;;;;;;;4975735;28;20021;-79
2022/06/17 14:55:02;;;;;;;10.47;1.80;;;;;;;;;;4907569;28;20057;-78
2022/06/17 14:57:46;;;;;;;8.02;1.50;;;;;;;;;;4994458;28;20729;-79
2022/06/17 15:00:19;;;;;;;9.75;1.80;;;;;;;;;;4983970;28;20026;-78
2022/06/17 15:02:48;;;;;;;7.78;1.50;;;;;;;;;;4973722;28;20022;-79
2022/06/17 15:05:35;;;;;;;10.68;1.50;;;;;;;;;;4979294;28;20034;-78
2022/06/17 15:08:07;;;;;;;11.73;1.70;;;;;;;;;;4978784;28;20888;-78
2022/06/17 15:10:36;;;;;;;11.15;1.67;;;;;;;;;;4986848;28;20034;-78
2022/06/17 15:14:07;;;;;;;8.90;1.88;;;;;;;;;;4958274;28;20444;-78
2022/06/17 15:16:04;;;;;;;8.68;1.60;;;;;;;;;;4977600;28;20049;-79
2022/06/17 15:18:31;;;;;;;9.73;1.50;;;;;;;;;;4974849;28;20037;-78
2022/06/17 15:20:59;;;;;;;7.32;1.50;;;;;;;;;;4967526;28;20035;-78
2022/06/17 15:23:34;;;;;;;7.85;1.70;;;;;;;;;;4965840;28;20030;-78
2022/06/17 15:26:07;;;;;;;8.05;1.60;;;;;;;;;;4969287;28;20102;-80
2022/06/17 15:28:36;;;;;;;9.00;1.52;;;;;;;;;;4945232;28;20098;-79
2022/06/17 15:31:24;;;;;;;9.57;1.38;;;;;;;;;;4957292;28;20046;-78